Time;durP1;ratioP1;P1;durP2;ratioP2;P2;SDS_P1;SDS_P2;PMS_P1;PMS_P2;Temp;Humidity;BMP_temperature;BMP_pressure;BME280_temperature;BME280_humidity;BME280_pressure;Samples;Min_cycle;Max_cycle;Signal;HPM_P1;HPM_P2
2022/03/03 00:01:07;;;;;;;9.70;7.67;;;0.90;61.90;;;;;;938146;150;27450;-76
2022/03/03 00:03:34;;;;;;;9.53;7.40;;;0.90;62.00;;;;;;940218;150;27282;-75
2022/03/03 00:06:00;;;;;;;9.30;7.30;;;0.90;62.10;;;;;;937500;149;27273;-76
2022/03/03 00:08:27;;;;;;;11.53;7.40;;;0.90;62.10;;;;;;936825;150;27293;-76
2022/03/03 00:10:54;;;;;;;12.50;7.37;;;0.90;62.10;;;;;;942069;150;27276;-76
2022/03/03 00:13:20;;;;;;;8.93;6.43;;;0.90;62.10;;;;;;939389;150;27266;-76
2022/03/03 00:15:47;;;;;;;10.10;7.53;;;0.90;62.20;;;;;;936321;150;27402;-76
2022/03/03 00:18:14;;;;;;;11.03;6.80;;;0.90;62.30;;;;;;939695;150;27367;-76
2022/03/03 00:20:40;;;;;;;10.43;7.17;;;0.90;62.30;;;;;;937574;150;28771;-76
2022/03/03 00:23:06;;;;;;;10.53;7.80;;;0.90;62.30;;;;;;939133;149;27241;-76
2022/03/03 00:25:33;;;;;;;10.93;7.70;;;0.80;62.30;;;;;;939393;150;27357;-76
2022/03/03 00:28:00;;;;;;;10.07;6.73;;;0.80;62.30;;;;;;938099;150;27372;-76
2022/03/03 00:30:26;;;;;;;9.33;6.83;;;0.80;62.50;;;;;;937686;150;27376;-76
2022/03/03 00:32:53;;;;;;;9.80;6.93;;;0.80;62.50;;;;;;938772;150;27359;-76
2022/03/03 00:35:19;;;;;;;7.50;5.40;;;0.80;62.60;;;;;;941274;150;27760;-76
2022/03/03 00:37:46;;;;;;;5.50;4.77;;;0.80;62.60;;;;;;942677;149;27397;-76
2022/03/03 00:40:13;;;;;;;9.50;6.63;;;0.70;62.60;;;;;;935593;150;27291;-76
2022/03/03 00:42:39;;;;;;;8.90;7.17;;;0.70;62.60;;;;;;937462;150;27276;-76
2022/03/03 00:45:06;;;;;;;9.27;7.17;;;0.70;62.60;;;;;;942017;150;27413;-76
2022/03/03 00:47:32;;;;;;;12.33;7.53;;;0.70;62.80;;;;;;941377;150;27354;-76
2022/03/03 00:49:59;;;;;;;11.10;6.53;;;0.70;62.90;;;;;;939580;150;27394;-76
2022/03/03 00:52:25;;;;;;;9.77;6.77;;;0.60;62.80;;;;;;940518;150;27681;-76
2022/03/03 00:54:52;;;;;;;9.40;7.17;;;0.60;62.90;;;;;;935634;150;28543;-76
2022/03/03 00:57:19;;;;;;;8.30;6.80;;;0.60;63.10;;;;;;934994;150;27336;-76
2022/03/03 00:59:45;;;;;;;10.07;6.93;;;0.60;63.10;;;;;;939202;150;27714;-76
2022/03/03 01:02:12;;;;;;;9.57;7.47;;;0.50;63.10;;;;;;940325;150;27277;-76
2022/03/03 01:04:38;;;;;;;7.93;7.10;;;0.50;63.10;;;;;;941312;148;27448;-76
2022/03/03 01:07:05;;;;;;;10.37;7.87;;;0.50;63.20;;;;;;936149;149;27385;-76
2022/03/03 01:09:32;;;;;;;9.43;7.30;;;0.40;63.20;;;;;;937558;150;27369;-76
2022/03/03 01:11:58;;;;;;;10.97;8.10;;;0.40;63.20;;;;;;938652;149;27859;-76
2022/03/03 01:14:25;;;;;;;11.27;7.97;;;0.40;63.30;;;;;;938764;149;27351;-76
2022/03/03 01:16:51;;;;;;;10.33;7.67;;;0.30;63.20;;;;;;940370;149;27325;-76
2022/03/03 01:19:18;;;;;;;10.63;7.63;;;0.30;63.30;;;;;;938985;150;27336;-76
2022/03/03 01:21:44;;;;;;;14.23;7.73;;;0.30;63.30;;;;;;939366;150;27351;-76
2022/03/03 01:24:11;;;;;;;9.93;6.87;;;0.20;63.40;;;;;;941177;150;27434;-76
2022/03/03 01:26:38;;;;;;;11.87;7.57;;;0.20;63.60;;;;;;936318;149;27378;-76
2022/03/03 01:29:04;;;;;;;9.80;7.67;;;0.20;63.50;;;;;;941209;150;27281;-76
2022/03/03 01:31:31;;;;;;;9.53;7.23;;;0.20;63.60;;;;;;937808;150;27290;-76
2022/03/03 01:33:57;;;;;;;10.00;7.80;;;0.20;63.80;;;;;;938384;150;27338;-76
2022/03/03 01:36:24;;;;;;;11.40;7.60;;;0.10;63.80;;;;;;938979;149;27354;-76
2022/03/03 01:38:51;;;;;;;9.20;7.77;;;0.10;63.80;;;;;;936762;149;27292;-76
2022/03/03 01:41:17;;;;;;;10.83;7.93;;;0.10;63.80;;;;;;938018;150;27346;-76
2022/03/03 01:43:44;;;;;;;9.37;7.53;;;0.10;63.90;;;;;;940850;149;27365;-76
2022/03/03 01:46:10;;;;;;;10.93;7.37;;;0.10;63.90;;;;;;940988;150;27368;-76
2022/03/03 01:48:37;;;;;;;8.07;6.07;;;0.00;63.90;;;;;;937956;150;27308;-76
2022/03/03 01:51:03;;;;;;;8.50;7.17;;;0.00;63.90;;;;;;939305;150;27276;-76
2022/03/03 01:53:30;;;;;;;9.43;7.30;;;0.00;63.90;;;;;;940498;150;27356;-76
2022/03/03 01:55:57;;;;;;;10.40;7.33;;;0.00;64.20;;;;;;938527;149;27379;-76
2022/03/03 01:58:23;;;;;;;9.30;7.60;;;-0.10;64.10;;;;;;935392;149;27357;-76
2022/03/03 02:00:50;;;;;;;10.20;8.53;;;-0.10;64.20;;;;;;943284;149;27427;-76
2022/03/03 02:03:16;;;;;;;10.07;7.07;;;-0.10;64.40;;;;;;941033;150;27479;-76
2022/03/03 02:05:43;;;;;;;6.70;6.00;;;-0.20;64.40;;;;;;936646;148;28411;-76
2022/03/03 02:08:10;;;;;;;9.93;7.97;;;-0.20;64.40;;;;;;936487;149;27631;-76
2022/03/03 02:10:36;;;;;;;12.73;8.63;;;-0.20;64.50;;;;;;938244;150;27269;-76
2022/03/03 02:13:03;;;;;;;10.43;8.07;;;-0.20;63.80;;;;;;940572;149;27370;-76
2022/03/03 02:15:29;;;;;;;13.13;8.33;;;-0.20;64.70;;;;;;940419;150;27376;-76
2022/03/03 02:17:56;;;;;;;9.23;7.23;;;-0.20;64.90;;;;;;936949;150;27441;-76
2022/03/03 02:20:26;;;;;;;8.23;7.33;;;-0.20;65.00;;;;;;939109;150;27312;-76
2022/03/03 02:22:52;;;;;;;11.73;7.70;;;-0.20;65.00;;;;;;939624;150;27376;-76
2022/03/03 02:25:19;;;;;;;10.53;8.27;;;-0.20;65.00;;;;;;939421;150;27422;-76
2022/03/03 02:27:45;;;;;;;8.70;6.67;;;-0.20;65.00;;;;;;939136;149;27327;-76
2022/03/03 02:30:12;;;;;;;10.57;7.07;;;-0.20;65.00;;;;;;937909;148;27327;-76
2022/03/03 02:32:38;;;;;;;10.83;7.63;;;-0.20;65.00;;;;;;941109;149;27408;-76
2022/03/03 02:35:05;;;;;;;10.63;8.33;;;-0.20;65.00;;;;;;937855;150;27365;-76
2022/03/03 02:37:32;;;;;;;12.10;8.43;;;-0.20;65.10;;;;;;936174;147;27422;-76
2022/03/03 02:39:58;;;;;;;11.63;8.80;;;-0.20;65.00;;;;;;938822;149;28361;-75
2022/03/03 02:42:25;;;;;;;10.10;7.83;;;-0.20;65.20;;;;;;940428;150;27352;-76
2022/03/03 02:44:51;;;;;;;11.30;7.43;;;-0.20;65.20;;;;;;941383;150;27299;-76
2022/03/03 02:47:18;;;;;;;10.43;8.37;;;-0.20;65.30;;;;;;936607;150;27304;-75
2022/03/03 02:49:45;;;;;;;8.93;7.00;;;-0.20;65.30;;;;;;941044;150;27417;-76
2022/03/03 02:52:11;;;;;;;11.30;7.97;;;-0.20;65.40;;;;;;939570;149;27689;-76
2022/03/03 02:54:38;;;;;;;12.77;8.40;;;-0.20;65.40;;;;;;940642;150;27349;-76
2022/03/03 02:59:49;;;;;;;13.33;7.53;;;-0.20;65.50;;;;;;937130;150;27457;-78
2022/03/03 03:02:16;;;;;;;10.20;7.67;;;-0.20;65.30;;;;;;936548;150;27424;-78
2022/03/03 03:04:42;;;;;;;8.77;6.77;;;-0.20;65.30;;;;;;941556;150;27424;-78
2022/03/03 03:07:09;;;;;;;9.13;7.37;;;-0.20;65.30;;;;;;939740;150;27413;-78
2022/03/03 03:09:35;;;;;;;6.83;5.60;;;-0.30;65.30;;;;;;943463;150;27309;-78
2022/03/03 03:12:02;;;;;;;6.33;5.60;;;-0.30;65.40;;;;;;936947;150;27332;-78
2022/03/03 03:14:29;;;;;;;11.50;8.77;;;-0.30;65.60;;;;;;940319;150;27353;-78
2022/03/03 03:16:55;;;;;;;11.53;8.30;;;-0.40;65.50;;;;;;937868;150;28360;-78
2022/03/03 03:19:22;;;;;;;12.13;7.87;;;-0.40;65.60;;;;;;938707;149;27411;-77
2022/03/03 03:21:48;;;;;;;11.03;8.07;;;-0.40;65.50;;;;;;943094;150;27417;-76
2022/03/03 03:24:15;;;;;;;12.03;8.23;;;-0.40;65.60;;;;;;942975;150;27383;-76
2022/03/03 03:26:41;;;;;;;12.13;7.77;;;-0.40;65.70;;;;;;942311;149;27332;-76
2022/03/03 03:29:08;;;;;;;12.03;9.43;;;-0.50;65.70;;;;;;941927;150;27493;-77
2022/03/03 03:31:35;;;;;;;10.47;7.97;;;-0.50;65.60;;;;;;942810;150;27713;-77
2022/03/03 03:34:01;;;;;;;11.57;9.27;;;-0.50;65.70;;;;;;945240;150;27464;-74
2022/03/03 03:36:28;;;;;;;13.57;10.23;;;-0.50;66.00;;;;;;941323;150;27382;-74
2022/03/03 03:38:54;;;;;;;12.00;8.17;;;-0.50;66.00;;;;;;942103;150;27819;-74
2022/03/03 03:41:21;;;;;;;11.07;8.57;;;-0.50;66.10;;;;;;944438;150;27777;-75
2022/03/03 03:43:48;;;;;;;12.00;8.37;;;-0.60;65.70;;;;;;941951;150;27425;-75
2022/03/03 03:46:14;;;;;;;11.50;8.67;;;-0.60;66.00;;;;;;940588;150;27297;-76
2022/03/03 03:48:41;;;;;;;10.70;8.03;;;-0.50;66.30;;;;;;942021;150;27389;-75
2022/03/03 03:51:07;;;;;;;7.80;6.70;;;-0.50;66.40;;;;;;940591;150;27464;-75
2022/03/03 03:53:34;;;;;;;9.33;8.17;;;-0.50;66.50;;;;;;943040;150;27421;-74
2022/03/03 03:56:01;;;;;;;9.50;8.37;;;-0.50;66.50;;;;;;938291;150;27273;-74
2022/03/03 03:58:27;;;;;;;10.87;7.87;;;-0.60;66.60;;;;;;942630;150;27337;-75
2022/03/03 04:00:54;;;;;;;14.67;9.00;;;-0.50;66.70;;;;;;941732;150;27338;-74
2022/03/03 04:03:20;;;;;;;13.30;9.67;;;-0.60;66.70;;;;;;943706;150;27295;-75
2022/03/03 04:05:47;;;;;;;12.23;8.37;;;-0.50;66.70;;;;;;944017;150;27386;-75
2022/03/03 04:08:14;;;;;;;9.93;8.60;;;-0.60;66.70;;;;;;946907;148;27400;-75
2022/03/03 04:10:40;;;;;;;13.20;9.60;;;-0.60;66.80;;;;;;945686;149;27342;-74
2022/03/03 04:13:07;;;;;;;11.43;8.33;;;-0.60;66.90;;;;;;949813;149;27355;-74
2022/03/03 04:15:34;;;;;;;12.63;8.23;;;-0.60;66.80;;;;;;948112;149;27273;-75
2022/03/03 04:18:00;;;;;;;10.43;8.17;;;-0.60;66.70;;;;;;947191;149;27358;-75
2022/03/03 04:20:27;;;;;;;11.43;8.07;;;-0.60;66.60;;;;;;950533;149;27324;-75
2022/03/03 04:22:53;;;;;;;9.37;8.03;;;-0.60;66.40;;;;;;947771;149;27429;-75
2022/03/03 04:25:20;;;;;;;11.30;8.27;;;-0.60;66.40;;;;;;945355;149;27340;-74
2022/03/03 04:27:46;;;;;;;9.80;8.47;;;-0.70;66.20;;;;;;947038;149;27381;-74
2022/03/03 04:30:13;;;;;;;11.97;9.17;;;-0.70;66.30;;;;;;948468;149;27321;-74
2022/03/03 04:32:39;;;;;;;11.63;8.20;;;-0.70;66.10;;;;;;947665;149;27394;-75
2022/03/03 04:35:06;;;;;;;9.60;8.13;;;-0.70;66.10;;;;;;951310;149;27333;-74
2022/03/03 04:37:33;;;;;;;11.63;8.40;;;-0.70;66.20;;;;;;945619;149;27316;-76
2022/03/03 04:39:59;;;;;;;11.73;8.13;;;-0.70;66.30;;;;;;946736;149;27335;-74
2022/03/03 04:42:26;;;;;;;14.90;8.10;;;-0.70;66.40;;;;;;944942;149;27349;-74
2022/03/03 04:44:52;;;;;;;11.97;8.00;;;-0.70;66.50;;;;;;943587;149;27457;-74
2022/03/03 04:47:19;;;;;;;12.30;8.57;;;-0.80;66.40;;;;;;947754;149;27308;-74
2022/03/03 04:49:45;;;;;;;13.97;8.40;;;-0.80;66.50;;;;;;949527;149;27443;-74
2022/03/03 04:52:12;;;;;;;11.47;9.10;;;-0.80;65.80;;;;;;948660;149;27326;-75
2022/03/03 04:54:39;;;;;;;10.97;9.03;;;-0.80;66.60;;;;;;945551;149;27746;-76
2022/03/03 04:57:05;;;;;;;13.17;8.90;;;-0.80;66.70;;;;;;946501;149;27381;-74
2022/03/03 04:59:32;;;;;;;13.87;8.93;;;-0.80;66.80;;;;;;946596;149;27363;-74
2022/03/03 05:01:59;;;;;;;17.80;10.53;;;-0.80;66.80;;;;;;945344;149;27359;-74
2022/03/03 05:04:25;;;;;;;11.03;8.73;;;-0.80;67.10;;;;;;945515;149;27419;-75
2022/03/03 05:06:52;;;;;;;10.67;7.43;;;-0.80;66.70;;;;;;949233;149;27343;-74
2022/03/03 05:09:18;;;;;;;11.03;8.07;;;-0.80;66.30;;;;;;939584;149;27301;-74
2022/03/03 05:11:45;;;;;;;10.00;7.67;;;-0.80;66.30;;;;;;943583;150;27324;-73
2022/03/03 05:14:11;;;;;;;10.23;7.43;;;-0.80;66.80;;;;;;937915;150;27449;-75
2022/03/03 05:16:38;;;;;;;9.17;7.60;;;-0.80;67.10;;;;;;939876;150;27471;-74
2022/03/03 05:19:05;;;;;;;10.73;7.67;;;-0.80;67.10;;;;;;941919;149;27451;-75
2022/03/03 05:21:34;;;;;;;11.10;7.63;;;-0.80;67.10;;;;;;937665;150;27405;-74
2022/03/03 05:23:58;;;;;;;10.77;8.00;;;-0.80;67.10;;;;;;936972;150;27295;-74
2022/03/03 05:26:24;;;;;;;9.03;7.23;;;-0.80;67.20;;;;;;941512;150;27418;-76
2022/03/03 05:28:51;;;;;;;8.70;6.80;;;-0.80;67.20;;;;;;941014;150;27289;-74
2022/03/03 05:31:17;;;;;;;9.33;7.87;;;-0.80;67.20;;;;;;942497;150;27361;-75
2022/03/03 05:33:44;;;;;;;11.63;8.70;;;-0.80;67.30;;;;;;940955;149;27344;-74
2022/03/03 05:36:11;;;;;;;11.40;8.00;;;-0.80;66.70;;;;;;937554;147;27415;-74
2022/03/03 05:38:37;;;;;;;8.33;7.43;;;-0.80;66.70;;;;;;936889;150;27301;-74
2022/03/03 05:41:04;;;;;;;12.90;8.23;;;-0.80;66.60;;;;;;937128;149;27819;-75
2022/03/03 05:43:31;;;;;;;11.27;7.97;;;-0.80;66.20;;;;;;939182;150;27328;-74
2022/03/03 05:45:57;;;;;;;12.07;8.70;;;-0.80;66.60;;;;;;939616;149;27408;-74
2022/03/03 05:48:24;;;;;;;11.17;7.57;;;-0.80;67.00;;;;;;939541;150;27786;-75
2022/03/03 05:50:50;;;;;;;12.07;8.23;;;-0.80;67.10;;;;;;940238;150;27302;-74
2022/03/03 05:53:17;;;;;;;9.90;7.30;;;-0.80;67.20;;;;;;939912;149;27359;-76
2022/03/03 05:55:43;;;;;;;8.57;7.53;;;-0.80;67.20;;;;;;937063;150;27429;-74
2022/03/03 05:58:10;;;;;;;11.67;8.30;;;-0.80;67.30;;;;;;937721;150;27435;-75
2022/03/03 06:00:37;;;;;;;14.10;9.37;;;-0.80;67.40;;;;;;939835;150;27421;-74
2022/03/03 06:03:03;;;;;;;11.53;7.87;;;-0.80;67.50;;;;;;940878;150;27462;-74
2022/03/03 06:05:30;;;;;;;10.27;7.97;;;-0.80;67.60;;;;;;939946;149;27426;-74
2022/03/03 06:07:59;;;;;;;10.43;7.43;;;-0.70;67.80;;;;;;939190;148;27325;-76
2022/03/03 06:10:26;;;;;;;11.40;7.60;;;-0.70;67.80;;;;;;939848;149;27342;-76
2022/03/03 06:12:59;;;;;;;10.67;8.27;;;-0.70;68.00;;;;;;938348;150;27355;-75
2022/03/03 06:15:25;;;;;;;9.13;7.53;;;-0.60;68.00;;;;;;938282;150;27297;-74
2022/03/03 06:17:52;;;;;;;9.90;7.27;;;-0.50;68.10;;;;;;938204;150;27268;-74
2022/03/03 06:20:18;;;;;;;10.70;8.10;;;-0.50;68.00;;;;;;940616;150;27296;-74
2022/03/03 06:22:45;;;;;;;12.77;8.07;;;-0.40;68.30;;;;;;939088;150;27258;-75
2022/03/03 06:25:12;;;;;;;13.37;7.40;;;-0.30;68.60;;;;;;936885;150;27456;-76
2022/03/03 06:27:38;;;;;;;11.90;8.27;;;-0.20;68.90;;;;;;935882;150;27451;-75
2022/03/03 06:30:05;;;;;;;10.07;8.23;;;0.00;69.20;;;;;;938503;150;27365;-76
2022/03/03 06:32:31;;;;;;;11.70;9.13;;;0.30;69.70;;;;;;938648;149;27442;-75
2022/03/03 06:34:58;;;;;;;11.70;8.50;;;0.60;70.10;;;;;;938055;150;27366;-76
2022/03/03 06:37:24;;;;;;;15.00;8.97;;;0.90;70.10;;;;;;940871;147;27293;-75
2022/03/03 06:39:51;;;;;;;17.07;9.83;;;1.30;70.30;;;;;;939184;150;27269;-76
2022/03/03 06:42:18;;;;;;;11.23;8.03;;;1.80;70.90;;;;;;932766;150;27407;-76
2022/03/03 06:44:44;;;;;;;10.07;7.30;;;2.30;69.90;;;;;;938552;150;27448;-77
2022/03/03 06:47:11;;;;;;;8.20;7.17;;;2.70;69.60;;;;;;940113;150;27519;-75
2022/03/03 06:49:37;;;;;;;7.97;7.17;;;3.30;69.50;;;;;;940271;150;28474;-77
2022/03/03 06:52:06;;;;;;;10.20;7.93;;;3.80;69.50;;;;;;941566;150;27382;-77
2022/03/03 06:54:31;;;;;;;10.13;6.90;;;4.30;69.20;;;;;;941993;150;27306;-76
2022/03/03 06:56:57;;;;;;;8.67;7.20;;;4.90;69.00;;;;;;940416;150;27391;-76
2022/03/03 06:59:24;;;;;;;10.63;7.60;;;5.50;68.60;;;;;;936459;150;27432;-76
2022/03/03 07:01:50;;;;;;;11.57;8.17;;;6.10;68.00;;;;;;942908;150;27329;-76
2022/03/03 07:04:17;;;;;;;9.17;7.97;;;6.60;67.50;;;;;;938233;150;27355;-77
2022/03/03 07:06:43;;;;;;;8.53;7.63;;;7.20;66.80;;;;;;941291;150;27347;-77
2022/03/03 07:09:10;;;;;;;8.87;7.93;;;7.80;66.00;;;;;;940563;150;27439;-76
2022/03/03 07:11:39;;;;;;;8.90;7.90;;;8.40;65.30;;;;;;937055;150;27429;-76
2022/03/03 07:14:06;;;;;;;9.53;8.50;;;8.90;64.40;;;;;;939523;150;27378;-77
2022/03/03 07:16:41;;;;;;;10.70;8.50;;;9.50;63.70;;;;;;940765;150;27418;-77
2022/03/03 07:19:26;;;;;;;8.90;8.00;;;10.00;62.90;;;;;;940260;150;27445;-76
2022/03/03 07:22:07;;;;;;;9.63;7.67;;;10.60;62.50;;;;;;938492;150;27389;-76
2022/03/03 07:24:32;;;;;;;11.57;9.97;;;11.20;62.00;;;;;;938414;149;27472;-76
2022/03/03 07:26:58;;;;;;;12.57;10.37;;;11.80;61.20;;;;;;941513;150;27328;-75
2022/03/03 07:29:24;;;;;;;11.77;9.83;;;12.30;59.50;;;;;;940792;150;27272;-76
2022/03/03 07:31:51;;;;;;;13.50;10.30;;;12.80;59.40;;;;;;937707;150;27402;-76
2022/03/03 07:34:17;;;;;;;13.30;11.43;;;13.30;58.80;;;;;;939461;150;27637;-76
2022/03/03 07:36:44;;;;;;;11.37;10.17;;;13.80;58.20;;;;;;938030;150;27468;-77
2022/03/03 07:39:11;;;;;;;11.27;9.90;;;14.30;57.60;;;;;;939874;150;27456;-76
2022/03/03 07:41:38;;;;;;;10.50;9.43;;;14.80;57.00;;;;;;935801;150;27448;-76
2022/03/03 07:44:04;;;;;;;9.70;8.73;;;15.30;56.40;;;;;;940805;150;27281;-77
2022/03/03 07:46:30;;;;;;;10.60;9.55;;;15.70;55.90;;;;;;940485;150;27395;-77
2022/03/03 07:48:58;;;;;;;9.68;8.50;;;16.10;55.40;;;;;;938463;150;27460;-77
2022/03/03 07:51:25;;;;;;;10.20;9.33;;;16.50;54.90;;;;;;938940;149;27277;-77
2022/03/03 07:53:50;;;;;;;8.53;7.72;;;16.90;54.30;;;;;;938181;150;27369;-78
2022/03/03 07:56:17;;;;;;;10.00;8.75;;;17.30;53.70;;;;;;938993;150;27421;-77
2022/03/03 07:58:43;;;;;;;9.75;8.75;;;17.60;53.10;;;;;;939610;150;27320;-77
2022/03/03 08:01:10;;;;;;;9.13;8.00;;;18.00;52.60;;;;;;939693;149;27399;-77
2022/03/03 08:03:37;;;;;;;10.18;9.18;;;18.30;52.20;;;;;;939557;150;27359;-77
2022/03/03 08:06:03;;;;;;;9.73;7.85;;;18.70;51.60;;;;;;938286;150;27390;-78
2022/03/03 08:08:30;;;;;;;10.45;7.50;;;19.00;51.10;;;;;;940976;149;27359;-77
2022/03/03 08:10:59;;;;;;;11.78;8.38;;;19.30;50.90;;;;;;939051;149;27404;-77
2022/03/03 08:13:26;;;;;;;9.13;8.28;;;19.60;50.40;;;;;;940921;150;27364;-78
2022/03/03 08:15:52;;;;;;;9.00;8.03;;;19.90;50.20;;;;;;937802;149;27355;-78
2022/03/03 08:18:19;;;;;;;12.88;8.58;;;20.10;49.60;;;;;;937062;150;27308;-78
2022/03/03 08:20:45;;;;;;;11.10;8.40;;;20.40;48.80;;;;;;940628;150;27281;-78
2022/03/03 08:23:12;;;;;;;9.28;8.38;;;20.50;48.30;;;;;;936937;149;27394;-78
2022/03/03 08:25:39;;;;;;;9.70;8.70;;;20.70;47.30;;;;;;939825;150;27325;-78
2022/03/03 08:28:06;;;;;;;9.68;8.68;;;20.70;47.10;;;;;;936094;150;27465;-79
2022/03/03 08:30:32;;;;;;;11.00;9.80;;;20.80;46.90;;;;;;939016;150;27336;-79
2022/03/03 08:33:04;;;;;;;10.53;9.35;;;20.80;46.70;;;;;;937780;150;27401;-78
2022/03/03 08:35:31;;;;;;;9.33;8.43;;;20.90;46.60;;;;;;908706;150;27414;-79
2022/03/03 08:38:03;;;;;;;8.20;7.40;;;21.10;46.70;;;;;;937689;147;27397;-78
2022/03/03 08:40:30;;;;;;;8.33;7.15;;;21.20;46.30;;;;;;937603;150;27375;-78
2022/03/03 08:42:56;;;;;;;8.10;7.40;;;21.40;46.10;;;;;;938187;150;27445;-79
2022/03/03 08:45:23;;;;;;;8.15;7.35;;;21.60;45.90;;;;;;940565;150;27447;-79
2022/03/03 08:47:49;;;;;;;8.58;7.70;;;21.80;45.30;;;;;;937472;150;27298;-79
2022/03/03 08:50:16;;;;;;;8.00;7.20;;;22.00;45.00;;;;;;934669;149;27335;-79
2022/03/03 08:52:42;;;;;;;7.92;7.22;;;22.10;44.70;;;;;;936085;150;27439;-79
2022/03/03 08:55:09;;;;;;;8.08;6.95;;;22.30;44.60;;;;;;939531;150;27317;-79
2022/03/03 08:57:36;;;;;;;7.47;6.78;;;22.50;44.30;;;;;;938276;149;27358;-79
2022/03/03 09:00:02;;;;;;;10.32;7.37;;;22.60;44.00;;;;;;933772;150;27472;-79
2022/03/03 09:02:29;;;;;;;7.80;6.80;;;22.80;43.70;;;;;;937137;150;27408;-80
2022/03/03 09:04:55;;;;;;;7.50;6.83;;;22.90;43.40;;;;;;942133;150;27816;-79
2022/03/03 09:07:22;;;;;;;6.90;6.30;;;23.00;43.30;;;;;;934786;150;27327;-79
2022/03/03 09:09:49;;;;;;;8.55;6.80;;;23.20;43.20;;;;;;940798;150;27469;-79
2022/03/03 09:12:15;;;;;;;7.75;6.60;;;23.30;43.00;;;;;;937548;149;27243;-80
2022/03/03 09:14:42;;;;;;;8.38;6.60;;;23.50;42.80;;;;;;938124;150;27951;-80
2022/03/03 09:17:08;;;;;;;7.85;6.47;;;23.70;42.70;;;;;;938121;150;27449;-80
2022/03/03 09:19:36;;;;;;;7.50;6.50;;;23.90;42.40;;;;;;937207;150;27447;-80
2022/03/03 09:22:03;;;;;;;7.17;6.53;;;24.10;42.00;;;;;;937770;150;27345;-80
2022/03/03 09:24:28;;;;;;;7.92;7.22;;;24.20;41.50;;;;;;938730;150;27678;-79
2022/03/03 09:26:55;;;;;;;7.25;6.65;;;24.30;41.20;;;;;;938338;150;27303;-80
2022/03/03 09:29:21;;;;;;;9.75;7.28;;;24.40;41.20;;;;;;935392;150;27336;-80
2022/03/03 09:31:48;;;;;;;7.62;6.75;;;24.50;41.00;;;;;;937774;150;27284;-80
2022/03/03 09:34:14;;;;;;;7.58;6.90;;;24.50;40.60;;;;;;939354;150;27315;-80
2022/03/03 09:36:41;;;;;;;12.10;7.65;;;24.50;40.50;;;;;;940809;147;27418;-80
2022/03/03 09:39:08;;;;;;;7.78;7.03;;;24.50;40.60;;;;;;940525;150;27337;-80
2022/03/03 09:41:34;;;;;;;7.92;7.00;;;24.40;40.00;;;;;;939095;149;28022;-80
2022/03/03 09:44:01;;;;;;;7.72;7.03;;;24.30;40.00;;;;;;941785;150;27304;-80
2022/03/03 09:46:27;;;;;;;8.45;7.03;;;24.20;39.80;;;;;;941058;150;27404;-80
2022/03/03 09:48:54;;;;;;;8.80;7.67;;;24.10;39.60;;;;;;936575;150;27286;-79
2022/03/03 09:51:21;;;;;;;8.60;7.10;;;24.00;39.50;;;;;;937349;150;27395;-80
2022/03/03 09:53:51;;;;;;;8.00;7.20;;;23.90;39.40;;;;;;940929;149;27326;-81
2022/03/03 09:56:14;;;;;;;8.55;7.03;;;23.70;39.30;;;;;;937181;150;27475;-80
2022/03/03 09:58:40;;;;;;;7.20;6.50;;;23.50;39.00;;;;;;936666;149;27416;-80
2022/03/03 10:01:07;;;;;;;7.17;6.35;;;23.30;38.90;;;;;;942480;150;27792;-80
2022/03/03 10:03:34;;;;;;;8.43;6.95;;;23.00;38.80;;;;;;935615;150;27317;-80
2022/03/03 10:06:00;;;;;;;7.60;6.90;;;22.70;38.80;;;;;;939773;150;27820;-80
2022/03/03 10:08:27;;;;;;;9.08;6.72;;;22.40;38.80;;;;;;939094;149;27370;-80
2022/03/03 10:10:53;;;;;;;8.58;6.80;;;22.10;38.60;;;;;;937260;150;27336;-81
2022/03/03 10:13:20;;;;;;;7.83;7.08;;;21.80;38.40;;;;;;936883;150;27913;-80
2022/03/03 10:15:46;;;;;;;8.43;7.53;;;21.50;38.20;;;;;;938679;150;27357;-80
2022/03/03 10:18:13;;;;;;;9.08;7.62;;;21.20;38.50;;;;;;937351;150;27847;-80
2022/03/03 10:20:48;;;;;;;8.73;7.92;;;20.90;38.50;;;;;;937332;149;27261;-80
2022/03/03 10:23:15;;;;;;;9.35;6.87;;;20.50;38.30;;;;;;940387;150;27342;-80
2022/03/03 10:25:42;;;;;;;7.83;6.97;;;20.20;38.40;;;;;;938781;150;27316;-81
2022/03/03 10:28:23;;;;;;;8.70;7.87;;;19.80;38.30;;;;;;936955;150;27463;-80
2022/03/03 10:30:52;;;;;;;8.33;7.53;;;19.40;38.30;;;;;;939386;150;27431;-80
2022/03/03 10:33:19;;;;;;;7.78;7.03;;;19.10;38.60;;;;;;938545;149;27326;-80
2022/03/03 10:36:03;;;;;;;7.60;6.90;;;18.70;38.60;;;;;;936582;150;27913;-80
2022/03/03 10:38:30;;;;;;;8.70;7.05;;;18.40;38.60;;;;;;937828;150;27290;-80
2022/03/03 10:40:57;;;;;;;8.83;7.60;;;18.10;38.80;;;;;;940448;150;27286;-80
2022/03/03 10:43:23;;;;;;;8.33;7.53;;;17.80;38.60;;;;;;938716;150;27312;-81
2022/03/03 10:45:58;;;;;;;8.13;7.33;;;17.50;38.80;;;;;;937666;149;27499;-80
2022/03/03 10:48:25;;;;;;;7.87;7.08;;;17.20;38.80;;;;;;938826;149;27447;-80
2022/03/03 10:50:52;;;;;;;7.43;6.73;;;16.90;39.00;;;;;;938713;150;27355;-80
2022/03/03 10:53:21;;;;;;;7.28;6.58;;;16.60;39.30;;;;;;935852;150;27350;-80
2022/03/03 10:56:05;;;;;;;7.87;7.17;;;16.40;39.40;;;;;;941498;149;27428;-80
2022/03/03 10:58:53;;;;;;;7.40;6.70;;;16.20;39.50;;;;;;938544;150;27445;-80
2022/03/03 11:03:54;;;;;;;7.50;6.70;;;16.00;39.60;;;;;;975002;145;40880;-76
2022/03/03 11:06:26;;;;;;;7.90;6.90;;;15.60;39.60;;;;;;959645;147;27375;-78
2022/03/03 11:08:52;;;;;;;8.33;6.50;;;15.40;39.70;;;;;;956706;149;27334;-78
2022/03/03 11:11:19;;;;;;;7.20;6.50;;;15.30;40.00;;;;;;958717;148;27333;-78
2022/03/03 11:13:47;;;;;;;8.43;6.77;;;15.20;40.10;;;;;;956388;146;27363;-78
2022/03/03 11:16:12;;;;;;;9.50;7.20;;;15.10;40.20;;;;;;956816;149;27375;-78
2022/03/03 11:18:39;;;;;;;8.30;6.63;;;14.90;40.00;;;;;;956438;147;27296;-78
2022/03/03 11:21:05;;;;;;;7.77;6.93;;;14.80;40.10;;;;;;956096;147;27329;-78
2022/03/03 11:23:40;;;;;;;8.27;6.47;;;14.70;40.00;;;;;;956262;146;27351;-77
2022/03/03 11:26:07;;;;;;;7.07;6.20;;;14.60;40.00;;;;;;955646;146;27255;-78
2022/03/03 11:28:33;;;;;;;8.03;7.23;;;14.40;40.30;;;;;;953605;149;27353;-76
2022/03/03 11:31:00;;;;;;;8.47;7.63;;;14.30;40.40;;;;;;953533;148;27321;-77
2022/03/03 11:33:31;;;;;;;8.83;7.00;;;14.20;41.20;;;;;;952507;148;27383;-78
2022/03/03 11:35:56;;;;;;;7.70;6.90;;;14.10;40.70;;;;;;956020;148;27436;-78
2022/03/03 11:38:23;;;;;;;7.13;6.53;;;14.00;40.90;;;;;;945850;149;27339;-78
2022/03/03 11:40:55;;;;;;;8.00;7.20;;;14.00;41.00;;;;;;946161;151;27352;-78
2022/03/03 11:43:22;;;;;;;6.90;6.20;;;13.90;41.00;;;;;;945439;151;27328;-78
2022/03/03 11:45:48;;;;;;;6.87;6.20;;;13.90;41.10;;;;;;946662;151;27352;-77
2022/03/03 11:48:20;;;;;;;6.20;5.60;;;13.80;41.10;;;;;;945456;150;27789;-78
2022/03/03 11:50:44;;;;;;;7.27;6.07;;;13.80;40.80;;;;;;946095;151;27347;-77
2022/03/03 11:53:10;;;;;;;9.23;6.13;;;13.80;40.50;;;;;;946269;150;27347;-77
2022/03/03 11:55:37;;;;;;;6.57;5.87;;;13.80;40.60;;;;;;946624;151;27303;-77
2022/03/03 11:58:06;;;;;;;6.13;5.53;;;13.70;40.60;;;;;;946121;150;27379;-77
2022/03/03 12:00:33;;;;;;;7.37;5.50;;;13.70;40.80;;;;;;946814;150;27376;-78
2022/03/03 12:03:05;;;;;;;6.87;5.67;;;13.70;41.00;;;;;;944550;151;27297;-77
2022/03/03 12:05:32;;;;;;;6.23;5.50;;;13.70;41.00;;;;;;944746;148;27426;-78
2022/03/03 12:08:16;;;;;;;8.53;5.90;;;13.70;41.10;;;;;;942741;149;27448;-77
2022/03/03 12:11:05;;;;;;;8.33;5.97;;;13.70;41.20;;;;;;939268;150;28279;-78
2022/03/03 12:13:32;;;;;;;6.53;5.63;;;13.70;42.10;;;;;;936433;149;27433;-78
2022/03/03 12:16:25;;;;;;;6.90;5.30;;;13.70;41.50;;;;;;938909;150;27426;-77
2022/03/03 12:18:58;;;;;;;7.13;6.17;;;13.70;41.40;;;;;;938739;150;27849;-77
2022/03/03 12:21:40;;;;;;;8.23;5.73;;;13.70;41.50;;;;;;943627;148;27337;-77
2022/03/03 12:24:17;;;;;;;6.30;5.30;;;13.80;41.60;;;;;;936571;150;27329;-76
2022/03/03 12:29:42;;;;;;;7.50;6.27;;;13.80;41.40;;;;;;942849;149;27369;-77
2022/03/03 12:32:26;;;;;;;6.57;5.67;;;13.80;41.40;;;;;;942380;149;27392;-77
2022/03/03 12:34:53;;;;;;;7.10;6.10;;;13.80;41.50;;;;;;942330;149;27381;-77
2022/03/03 12:37:19;;;;;;;7.10;6.40;;;13.80;41.40;;;;;;942009;149;27389;-76
2022/03/03 12:39:52;;;;;;;5.93;5.40;;;13.80;41.40;;;;;;941567;149;27435;-77
2022/03/03 12:42:18;;;;;;;6.17;5.57;;;13.80;41.20;;;;;;942001;149;27384;-77
2022/03/03 12:44:46;;;;;;;5.90;5.40;;;13.80;41.30;;;;;;941241;149;27321;-77
2022/03/03 12:47:12;;;;;;;7.60;6.10;;;13.80;41.30;;;;;;940945;149;27302;-77
2022/03/03 12:49:41;;;;;;;6.97;5.83;;;13.80;41.20;;;;;;941886;149;27365;-77
2022/03/03 12:52:07;;;;;;;6.37;5.30;;;13.80;41.00;;;;;;942741;149;27454;-76
2022/03/03 12:54:34;;;;;;;7.43;5.87;;;13.80;41.10;;;;;;942851;149;28446;-77